KTQH Airport (Tahlequah Muni) Information

FAA: TQH - ICAO: KTQH

KTQH Airport Location

State Oklahoma
County Cherokee
City Tahlequah
KTQH Airport is 2 miles northwest of Tahlequah, OK.
Latitude 35-55-49.0000N
Longitude 095-00-16.3000W
Elevation 874ft

KTQH Airport METARs

METAR KTQH 071935Z AUTO 00000KT 10SM OVC013 12/07 A3021 RMK AO2
Altimeter 30.21"
Temperature 12.0°C (53.6°F)
Wind 0° at 0KT
Clouds overcast at 1,300ft
Visibility 10.0mi
Time observed: 2022-12-07T19:35:00Z

KTQH Airport Details

Status Operational
Activation October 1948
Ownership Public
Usage Public
Chart DALLAS-FT WORTH
ATC on-site No
Beacon schedule sunset-sunrise
Beacon color clear green

KTQH Airport Contacts

Owner CITY OF TAHLEQUAH
Owner address CITY HALL, 111 S. CHEROKEE, TAHLEQUAH, OK 74464
Owner phone 918-456-0561
Manager GERALD SCHULZ
Manager address PO BOX 280, SNYDER, OK 73566
Manager phone 580-569-2222

KTQH Airport (Tahlequah Muni) Radio Frequencies

KTQH (Airport) Radio Frequencies

UNICOM 122.8
Common traffic advisory frequency (CTAF) 122.8